Time,TemperatureF,DewpointF,PressureIn,WindDirection,WindDirectionDegrees,WindSpeedMPH,WindSpeedGustMPH,Humidity,HourlyPrecipIn,Conditions,Clouds,dailyrainin,SoftwareType,DateUTC
2013-02-13 00:02:00,31.8,13.3,30.29,SW,232,6.0,6.1,46,0.00,CLR,,0.00,WeatherDisplay:10.37,2013-02-13 08:02:00,
2013-02-13 00:07:00,31.1,13.7,30.29,SW,221,7.0,7.0,48,0.00,CLR,,0.00,WeatherDisplay:10.37,2013-02-13 08:07:00,
2013-02-13 00:12:00,31.6,14.1,30.29,SW,228,8.1,8.1,48,0.00,CLR,,0.00,WeatherDisplay:10.37,2013-02-13 08:12:00,
2013-02-13 00:17:00,32.3,14.8,30.29,SW,230,7.0,8.0,48,0.00,CLR,,0.00,WeatherDisplay:10.37,2013-02-13 08:17:00,
2013-02-13 00:22:00,32.4,14.4,30.29,SW,234,7.0,8.0,47,0.00,CLR,,0.00,WeatherDisplay:10.37,2013-02-13 08:22:00,
2013-02-13 00:27:00,31.8,14.3,30.28,SW,225,8.1,8.1,48,0.00,CLR,,0.00,WeatherDisplay:10.37,2013-02-13 08:27:00,
2013-02-13 00:32:00,31.1,13.6,30.28,SW,225,8.0,8.0,48,0.00,CLR,,0.00,WeatherDisplay:10.37,2013-02-13 08:32:00,
2013-02-13 00:37:00,30.8,13.4,30.28,SW,233,8.1,8.1,48,0.00,CLR,,0.00,WeatherDisplay:10.37,2013-02-13 08:37:00,
2013-02-13 00:42:00,31.0,13.1,30.28,SW,229,8.1,8.1,47,0.00,CLR,,0.00,WeatherDisplay:10.37,2013-02-13 08:42:00,
2013-02-13 00:47:00,31.4,13.5,30.28,SW,215,6.0,6.0,47,0.00,CLR,,0.00,WeatherDisplay:10.37,2013-02-13 08:47:00,
2013-02-13 00:52:00,32.2,14.2,30.28,SW,233,5.0,5.0,47,0.00,CLR,,0.00,WeatherDisplay:10.37,2013-02-13 08:52:00,
2013-02-13 00:57:00,32.3,13.8,30.28,WSW,247,4.6,4.6,46,0.00,CLR,,0.00,WeatherDisplay:10.37,2013-02-13 08:57:00,
2013-02-13 01:03:00,31.2,13.8,30.28,SSE,156,2.3,2.3,48,0.00,OVC,,0.00,WeatherDisplay:10.37,2013-02-13 09:03:00,
2013-02-13 01:08:00,30.7,13.8,30.28,South,177,7.0,7.0,49,0.00,OVC,,0.00,WeatherDisplay:10.37,2013-02-13 09:08:00,
2013-02-13 01:13:00,30.2,13.3,30.27,SSW,195,6.9,6.9,49,0.00,OVC,,0.00,WeatherDisplay:10.37,2013-02-13 09:13:00,
2013-02-13 01:18:00,29.7,13.3,30.28,SSW,205,6.0,6.0,50,0.00,OVC,,0.00,WeatherDisplay:10.37,2013-02-13 09:18:00,
2013-02-13 01:24:00,29.4,13.5,30.27,SW,227,6.9,6.9,51,0.00,OVC,,0.00,WeatherDisplay:10.37,2013-02-13 09:24:00,
2013-02-13 01:29:00,29.8,12.9,30.28,SW,225,6.0,6.0,49,0.00,OVC,,0.00,WeatherDisplay:10.37,2013-02-13 09:29:00,
2013-02-13 01:34:00,28.8,12.0,30.28,SW,222,7.0,7.0,49,0.00,OVC,,0.00,WeatherDisplay:10.37,2013-02-13 09:34:00,
2013-02-13 01:39:00,28.7,11.9,30.28,NNW,328,3.0,3.0,49,0.00,OVC,,0.00,WeatherDisplay:10.37,2013-02-13 09:39:00,
2013-02-13 01:44:00,29.0,13.1,30.28,WSW,256,4.0,4.0,51,0.00,OVC,,0.00,WeatherDisplay:10.37,2013-02-13 09:44:00,
2013-02-13 01:50:00,29.9,13.9,30.28,WSW,256,3.5,3.5,51,0.00,OVC,,0.00,WeatherDisplay:10.37,2013-02-13 09:50:00,
2013-02-13 01:55:00,29.8,12.9,30.28,WSW,256,0.0,0.0,49,0.00,OVC,,0.00,WeatherDisplay:10.37,2013-02-13 09:55:00,
2013-02-13 02:00:00,29.2,12.4,30.28,WSW,256,0.0,0.0,49,0.00,OVC,,0.00,WeatherDisplay:10.37,2013-02-13 10:00:00,
2013-02-13 02:05:00,28.5,12.2,30.28,WSW,256,0.0,0.0,50,0.00,OVC,,0.00,WeatherDisplay:10.37,2013-02-13 10:05:00,
2013-02-13 02:10:00,27.7,11.5,30.28,WSW,256,1.1,1.1,50,0.00,OVC,,0.00,WeatherDisplay:10.37,2013-02-13 10:10:00,
2013-02-13 02:15:00,27.4,12.1,30.28,WSW,256,0.0,0.0,52,0.00,OVC,,0.00,WeatherDisplay:10.37,2013-02-13 10:15:00,
2013-02-13 02:20:00,27.8,13.3,30.28,WSW,256,2.3,2.3,54,0.00,OVC,,0.00,WeatherDisplay:10.37,2013-02-13 10:20:00,
2013-02-13 02:25:00,28.0,13.1,30.27,NW,323,3.5,3.5,53,0.00,OVC,,0.00,WeatherDisplay:10.37,2013-02-13 10:25:00,
2013-02-13 02:30:00,28.3,13.3,30.28,NNW,336,3.5,3.5,53,0.00,OVC,,0.00,WeatherDisplay:10.37,2013-02-13 10:30:00,
2013-02-13 02:36:00,28.2,13.2,30.28,NNW,336,0.0,0.0,53,0.00,OVC,,0.00,WeatherDisplay:10.37,2013-02-13 10:36:00,
2013-02-13 02:41:00,27.9,13.4,30.28,NNW,336,0.0,0.0,54,0.00,OVC,,0.00,WeatherDisplay:10.37,2013-02-13 10:41:00,
2013-02-13 02:46:00,27.9,14.6,30.27,NNW,336,0.0,0.0,57,0.00,OVC,,0.00,WeatherDisplay:10.37,2013-02-13 10:46:00,
2013-02-13 02:51:00,28.8,15.9,30.27,NNW,339,4.0,4.0,58,0.00,OVC,,0.00,WeatherDisplay:10.37,2013-02-13 10:51:00,
2013-02-13 02:57:00,29.7,15.5,30.27,NNW,339,5.8,5.8,55,0.00,OVC,,0.00,WeatherDisplay:10.37,2013-02-13 10:57:00,
2013-02-13 03:02:00,30.3,16.5,30.27,NNW,339,3.5,3.5,56,0.00,OVC,,0.00,WeatherDisplay:10.37,2013-02-13 11:02:00,
2013-02-13 03:07:00,30.2,15.1,30.27,NNW,339,0.0,3.0,53,0.00,CLR,,0.00,WeatherDisplay:10.37,2013-02-13 11:07:00,
2013-02-13 03:12:00,29.8,13.9,30.27,NNW,339,0.0,0.0,51,0.00,CLR,,0.00,WeatherDisplay:10.37,2013-02-13 11:12:00,
2013-02-13 03:17:00,29.3,14.2,30.27,NNW,339,0.0,1.0,53,0.00,CLR,,0.00,WeatherDisplay:10.37,2013-02-13 11:17:00,
2013-02-13 03:22:00,28.8,14.2,30.27,NNW,336,0.0,4.0,54,0.00,CLR,,0.00,WeatherDisplay:10.37,2013-02-13 11:22:00,
2013-02-13 03:27:00,27.5,14.2,30.27,SSE,167,3.5,3.5,57,0.00,OVC,,0.00,WeatherDisplay:10.37,2013-02-13 11:27:00,
2013-02-13 03:32:00,26.8,14.8,30.27,SSE,167,3.5,3.5,60,0.00,OVC,,0.00,WeatherDisplay:10.37,2013-02-13 11:32:00,
2013-02-13 03:37:00,26.2,14.6,30.27,South,180,4.6,4.6,61,0.00,OVC,,0.00,WeatherDisplay:10.37,2013-02-13 11:37:00,
2013-02-13 03:42:00,27.5,15.4,30.27,SW,227,4.0,4.0,60,0.00,OVC,,0.00,WeatherDisplay:10.37,2013-02-13 11:42:00,
2013-02-13 03:47:00,26.6,13.4,30.26,WSW,245,5.0,5.0,57,0.00,OVC,,0.00,WeatherDisplay:10.37,2013-02-13 11:47:00,
2013-02-13 03:52:00,27.4,14.5,30.27,WSW,244,5.0,5.0,58,0.00,OVC,,0.00,WeatherDisplay:10.37,2013-02-13 11:52:00,
2013-02-13 03:57:00,28.4,13.9,30.27,SW,227,6.9,6.9,54,0.00,OVC,,0.00,WeatherDisplay:10.37,2013-02-13 11:57:00,
2013-02-13 04:02:00,28.7,13.3,30.26,SW,226,8.1,8.1,52,0.00,CLR,,0.00,WeatherDisplay:10.37,2013-02-13 12:02:00,
2013-02-13 04:07:00,27.3,12.4,30.27,WSW,245,6.0,6.0,53,0.00,CLR,,0.00,WeatherDisplay:10.37,2013-02-13 12:07:00,
2013-02-13 04:12:00,26.5,13.3,30.27,West,262,5.0,5.0,57,0.00,CLR,,0.00,WeatherDisplay:10.37,2013-02-13 12:12:00,
2013-02-13 04:17:00,27.1,14.3,30.27,West,263,3.5,3.5,58,0.00,CLR,,0.00,WeatherDisplay:10.37,2013-02-13 12:17:00,
2013-02-13 04:22:00,27.8,15.3,30.27,West,262,3.5,3.5,59,0.00,CLR,,0.00,WeatherDisplay:10.37,2013-02-13 12:22:00,
2013-02-13 04:27:00,28.8,15.5,30.27,WSW,255,3.5,3.5,57,0.00,CLR,,0.00,WeatherDisplay:10.37,2013-02-13 12:27:00,
2013-02-13 04:32:00,28.6,15.3,30.27,WSW,255,3.5,3.5,57,0.00,CLR,,0.00,WeatherDisplay:10.37,2013-02-13 12:32:00,
2013-02-13 04:37:00,28.9,13.9,30.27,WSW,255,3.5,3.5,53,0.00,CLR,,0.00,WeatherDisplay:10.37,2013-02-13 12:37:00,
2013-02-13 04:42:00,28.0,14.3,30.27,WSW,255,3.5,3.5,56,0.00,CLR,,0.00,WeatherDisplay:10.37,2013-02-13 12:42:00,
2013-02-13 04:47:00,27.8,13.7,30.27,WSW,255,0.0,0.0,55,0.00,CLR,,0.00,WeatherDisplay:10.37,2013-02-13 12:47:00,
2013-02-13 04:52:00,27.2,14.0,30.27,WSW,255,2.3,2.3,57,0.00,CLR,,0.00,WeatherDisplay:10.37,2013-02-13 12:52:00,
2013-02-13 04:57:00,27.0,14.9,30.27,WSW,255,2.3,2.3,60,0.00,CLR,,0.00,WeatherDisplay:10.37,2013-02-13 12:57:00,
2013-02-13 05:02:00,27.4,14.9,30.27,WSW,255,0.0,0.0,59,0.00,CLR,,0.00,WeatherDisplay:10.37,2013-02-13 13:02:00,
2013-02-13 05:07:00,27.5,15.0,30.27,WSW,255,0.0,0.0,59,0.00,OVC,,0.00,WeatherDisplay:10.37,2013-02-13 13:07:00,
2013-02-13 05:12:00,26.5,12.5,30.27,WSW,255,2.0,2.0,55,0.00,OVC,,0.00,WeatherDisplay:10.37,2013-02-13 13:12:00,
2013-02-13 05:17:00,25.3,12.6,30.27,WSW,255,1.1,1.1,58,0.00,OVC,,0.00,WeatherDisplay:10.37,2013-02-13 13:17:00,
2013-02-13 05:22:00,25.4,13.4,30.27,WSW,255,0.0,0.0,60,0.00,OVC,,0.00,WeatherDisplay:10.37,2013-02-13 13:22:00,
2013-02-13 05:27:00,25.8,13.8,30.27,WSW,255,0.0,0.0,60,0.00,OVC,,0.00,WeatherDisplay:10.37,2013-02-13 13:27:00,
2013-02-13 05:32:00,25.1,11.2,30.27,WSW,255,0.0,0.0,55,0.00,OVC,,0.00,WeatherDisplay:10.37,2013-02-13 13:32:00,
2013-02-13 05:37:00,24.2,11.9,30.27,WSW,255,3.5,3.5,59,0.00,OVC,,0.00,WeatherDisplay:10.37,2013-02-13 13:37:00,
2013-02-13 05:42:00,24.3,12.8,30.27,WSW,255,2.3,2.3,61,0.00,OVC,,0.00,WeatherDisplay:10.37,2013-02-13 13:42:00,
2013-02-13 05:47:00,23.9,12.0,30.28,WSW,255,3.5,3.5,60,0.00,OVC,,0.00,WeatherDisplay:10.37,2013-02-13 13:47:00,
2013-02-13 05:52:00,24.2,12.7,30.28,WSW,255,2.3,2.3,61,0.00,OVC,,0.00,WeatherDisplay:10.37,2013-02-13 13:52:00,
2013-02-13 05:57:00,25.0,14.5,30.28,WSW,255,0.0,0.0,64,0.00,OVC,,0.00,WeatherDisplay:10.37,2013-02-13 13:57:00,
2013-02-13 06:02:00,25.2,12.9,30.28,WSW,255,1.1,0.0,59,0.00,OVC,,0.00,WeatherDisplay:10.37,2013-02-13 14:02:00,
2013-02-13 06:07:00,24.7,14.2,30.28,WSW,255,2.3,2.3,64,0.00,OVC,,0.00,WeatherDisplay:10.37,2013-02-13 14:07:00,
2013-02-13 06:12:00,25.1,13.2,30.28,WSW,255,0.0,0.0,60,0.00,OVC,,0.00,WeatherDisplay:10.37,2013-02-13 14:12:00,
2013-02-13 06:17:00,23.1,9.7,30.28,SSW,194,3.5,3.5,56,0.00,OVC,,0.00,WeatherDisplay:10.37,2013-02-13 14:17:00,
2013-02-13 06:22:00,21.7,9.9,30.28,SSW,194,3.5,3.5,60,0.00,OVC,,0.00,WeatherDisplay:10.37,2013-02-13 14:22:00,
2013-02-13 06:27:00,22.0,11.3,30.29,SSW,194,4.0,4.0,63,0.00,OVC,,0.00,WeatherDisplay:10.37,2013-02-13 14:27:00,
2013-02-13 06:32:00,22.3,11.6,30.29,SSW,194,3.5,3.5,63,0.00,OVC,,0.00,WeatherDisplay:10.37,2013-02-13 14:32:00,
2013-02-13 06:37:00,22.7,12.0,30.29,SSW,194,4.0,4.0,63,0.00,OVC,,0.00,WeatherDisplay:10.37,2013-02-13 14:37:00,
2013-02-13 06:43:00,22.7,12.0,30.29,SSW,209,5.0,5.0,63,0.00,OVC,,0.00,WeatherDisplay:10.37,2013-02-13 14:43:00,
2013-02-13 06:48:00,21.7,10.3,30.30,SSW,209,3.5,3.5,61,0.00,OVC,,0.00,WeatherDisplay:10.37,2013-02-13 14:48:00,
2013-02-13 06:53:00,21.5,10.8,30.30,SSW,209,4.0,4.0,63,0.00,OVC,,0.00,WeatherDisplay:10.37,2013-02-13 14:53:00,
2013-02-13 06:58:00,21.6,10.6,30.30,SSW,209,2.3,2.3,62,0.00,OVC,,0.00,WeatherDisplay:10.37,2013-02-13 14:58:00,
2013-02-13 07:03:00,21.8,11.1,30.30,SSW,209,1.1,0.0,63,0.00,OVC,,0.00,WeatherDisplay:10.37,2013-02-13 15:03:00,
2013-02-13 07:08:00,22.0,11.3,30.30,SSW,209,0.0,0.0,63,0.00,OVC,,0.00,WeatherDisplay:10.37,2013-02-13 15:08:00,
2013-02-13 07:13:00,22.8,12.8,30.31,SSW,209,1.1,1.1,65,0.00,OVC,,0.00,WeatherDisplay:10.37,2013-02-13 15:13:00,
2013-02-13 07:18:00,24.0,13.6,30.31,SSW,209,2.3,2.3,64,0.00,OVC,,0.00,WeatherDisplay:10.37,2013-02-13 15:18:00,
2013-02-13 07:23:00,25.0,14.2,30.31,NW,313,3.5,3.5,63,0.00,OVC,,0.00,WeatherDisplay:10.37,2013-02-13 15:23:00,
2013-02-13 07:28:00,26.3,14.7,30.31,NW,313,2.3,2.3,61,0.00,OVC,,0.00,WeatherDisplay:10.37,2013-02-13 15:28:00,
2013-02-13 07:33:00,27.1,14.3,30.31,NW,313,0.0,0.0,58,0.00,OVC,,0.00,WeatherDisplay:10.37,2013-02-13 15:33:00,
2013-02-13 07:38:00,27.5,14.6,30.31,NW,313,0.0,0.0,58,0.00,OVC,,0.00,WeatherDisplay:10.37,2013-02-13 15:38:00,
2013-02-13 07:43:00,28.3,15.8,30.31,NW,313,0.0,0.0,59,0.00,OVC,,0.00,WeatherDisplay:10.37,2013-02-13 15:43:00,
2013-02-13 07:48:00,29.7,17.1,30.31,NW,313,0.0,0.0,59,0.00,OVC,,0.00,WeatherDisplay:10.37,2013-02-13 15:48:00,
2013-02-13 07:53:00,30.9,18.2,30.31,NW,313,0.0,0.0,59,0.00,OVC,,0.00,WeatherDisplay:10.37,2013-02-13 15:53:00,
2013-02-13 07:58:00,32.2,19.5,30.32,NW,313,0.0,0.0,59,0.00,OVC,,0.00,WeatherDisplay:10.37,2013-02-13 15:58:00,
2013-02-13 08:03:00,33.3,19.7,30.32,NW,313,0.0,0.0,57,0.00,CLR,,0.00,WeatherDisplay:10.37,2013-02-13 16:03:00,
2013-02-13 08:08:00,34.3,20.2,30.32,NW,313,0.0,0.0,56,0.00,CLR,,0.00,WeatherDisplay:10.37,2013-02-13 16:08:00,
2013-02-13 08:14:00,35.6,20.6,30.32,NW,313,0.0,0.0,54,0.00,CLR,,0.00,WeatherDisplay:10.37,2013-02-13 16:14:00,
2013-02-13 08:19:00,37.5,21.0,30.32,NW,313,0.0,0.0,51,0.00,CLR,,0.00,WeatherDisplay:10.37,2013-02-13 16:19:00,
2013-02-13 08:24:00,38.6,21.1,30.32,NW,313,0.0,0.0,49,0.00,CLR,,0.00,WeatherDisplay:10.37,2013-02-13 16:24:00,
2013-02-13 08:29:00,39.3,21.2,30.32,NW,313,0.0,0.0,48,0.00,CLR,,0.00,WeatherDisplay:10.37,2013-02-13 16:29:00,
2013-02-13 08:34:00,39.7,21.1,30.32,NW,313,1.0,1.0,47,0.00,CLR,,0.00,WeatherDisplay:10.37,2013-02-13 16:34:00,
2013-02-13 08:39:00,40.2,21.0,30.32,NW,312,1.0,1.0,46,0.00,CLR,,0.00,WeatherDisplay:10.37,2013-02-13 16:39:00,
2013-02-13 08:45:00,41.7,21.4,30.32,NW,313,1.1,1.1,44,0.00,CLR,,0.00,WeatherDisplay:10.37,2013-02-13 16:45:00,
2013-02-13 08:50:00,42.9,21.9,30.32,NW,313,0.0,0.0,43,0.00,CLR,,0.00,WeatherDisplay:10.37,2013-02-13 16:50:00,
2013-02-13 08:55:00,44.3,22.1,30.32,NW,313,0.0,0.0,41,0.00,CLR,,0.00,WeatherDisplay:10.37,2013-02-13 16:55:00,
2013-02-13 09:00:00,45.3,21.8,30.32,NW,313,0.0,0.0,39,0.00,CLR,,0.00,WeatherDisplay:10.37,2013-02-13 17:00:00,
2013-02-13 09:05:00,46.1,21.9,30.32,NW,313,1.0,1.0,38,0.00,OVC,,0.00,WeatherDisplay:10.37,2013-02-13 17:05:00,
2013-02-13 09:10:00,46.9,22.0,30.32,NW,325,1.1,0.0,37,0.00,OVC,,0.00,WeatherDisplay:10.37,2013-02-13 17:10:00,
2013-02-13 09:16:00,47.2,21.6,30.32,NW,325,1.1,1.1,36,0.00,OVC,,0.00,WeatherDisplay:10.37,2013-02-13 17:16:00,
2013-02-13 09:21:00,47.0,20.7,30.32,NNE,33,3.5,3.5,35,0.00,OVC,,0.00,WeatherDisplay:10.37,2013-02-13 17:21:00,
2013-02-13 09:26:00,46.9,20.6,30.32,NNE,33,2.3,2.3,35,0.00,OVC,,0.00,WeatherDisplay:10.37,2013-02-13 17:26:00,
2013-02-13 09:31:00,47.1,20.8,30.32,NNE,33,2.3,2.3,35,0.00,OVC,,0.00,WeatherDisplay:10.37,2013-02-13 17:31:00,
2013-02-13 09:36:00,47.9,20.8,30.32,NNE,33,2.3,2.3,34,0.00,OVC,,0.00,WeatherDisplay:10.37,2013-02-13 17:36:00,
2013-02-13 09:41:00,48.7,20.8,30.32,NNE,33,2.3,2.3,33,0.00,OVC,,0.00,WeatherDisplay:10.37,2013-02-13 17:41:00,
2013-02-13 09:47:00,48.8,20.2,30.31,NNE,33,2.3,2.3,32,0.00,CLR,,0.00,WeatherDisplay:10.37,2013-02-13 17:47:00,
2013-02-13 09:52:00,49.6,20.9,30.31,NNE,33,3.5,3.5,32,0.00,OVC,,0.00,WeatherDisplay:10.37,2013-02-13 17:52:00,
2013-02-13 09:57:00,50.6,21.7,30.31,NNE,33,0.0,1.0,32,0.00,CLR,,0.00,WeatherDisplay:10.37,2013-02-13 17:57:00,
2013-02-13 10:02:00,51.9,21.4,30.31,NNE,33,1.0,2.0,30,0.00,CLR,,0.00,WeatherDisplay:10.37,2013-02-13 18:02:00,
2013-02-13 10:07:00,52.2,21.7,30.31,NNE,33,0.0,2.0,30,0.00,CLR,,0.00,WeatherDisplay:10.37,2013-02-13 18:07:00,
2013-02-13 10:12:00,52.1,21.6,30.31,NE,42,0.0,3.0,30,0.00,CLR,,0.00,WeatherDisplay:10.37,2013-02-13 18:12:00,
2013-02-13 10:17:00,52.1,20.8,30.31,NE,54,1.1,1.1,29,0.00,OVC,,0.00,WeatherDisplay:10.37,2013-02-13 18:17:00,
2013-02-13 10:22:00,53.2,21.7,30.31,NE,54,0.0,1.0,29,0.00,CLR,,0.00,WeatherDisplay:10.37,2013-02-13 18:22:00,
2013-02-13 10:27:00,53.2,20.9,30.31,SSE,163,3.5,3.5,28,0.00,OVC,,0.00,WeatherDisplay:10.37,2013-02-13 18:27:00,
2013-02-13 10:32:00,53.0,20.7,30.31,SSE,147,4.6,4.6,28,0.00,OVC,,0.00,WeatherDisplay:10.37,2013-02-13 18:32:00,
2013-02-13 10:37:00,52.4,20.2,30.30,SSE,163,2.3,2.3,28,0.00,OVC,,0.00,WeatherDisplay:10.37,2013-02-13 18:37:00,
2013-02-13 10:43:00,52.6,20.4,30.30,ESE,111,5.8,5.8,28,0.00,OVC,,0.00,WeatherDisplay:10.37,2013-02-13 18:43:00,
2013-02-13 10:48:00,53.0,20.7,30.30,East,87,2.3,2.3,28,0.00,OVC,,0.00,WeatherDisplay:10.37,2013-02-13 18:48:00,
2013-02-13 10:53:00,54.5,21.2,30.30,East,87,1.0,1.0,27,0.00,OVC,,0.00,WeatherDisplay:10.37,2013-02-13 18:53:00,
2013-02-13 10:58:00,56.3,21.8,30.30,East,87,1.1,1.1,26,0.00,OVC,,0.00,WeatherDisplay:10.37,2013-02-13 18:58:00,
2013-02-13 11:03:00,56.2,19.8,30.30,WNW,286,3.5,3.5,24,0.00,OVC,,0.00,WeatherDisplay:10.37,2013-02-13 19:03:00,
2013-02-13 11:08:00,56.8,21.3,30.29,NW,317,4.0,4.0,25,0.00,OVC,,0.00,WeatherDisplay:10.37,2013-02-13 19:08:00,
2013-02-13 11:14:00,56.6,20.2,30.29,WNW,285,3.5,3.5,24,0.00,OVC,,0.00,WeatherDisplay:10.37,2013-02-13 19:14:00,
2013-02-13 11:19:00,56.8,21.3,30.29,ESE,113,1.1,1.1,25,0.00,OVC,,0.00,WeatherDisplay:10.37,2013-02-13 19:19:00,
2013-02-13 11:24:00,57.7,20.1,30.28,East,93,1.1,1.1,23,0.00,OVC,,0.00,WeatherDisplay:10.37,2013-02-13 19:24:00,
2013-02-13 11:29:00,57.9,20.3,30.28,ESE,123,3.5,3.5,23,0.00,OVC,,0.00,WeatherDisplay:10.37,2013-02-13 19:29:00,
2013-02-13 11:34:00,58.0,20.4,30.28,NW,304,3.5,3.5,23,0.00,OVC,,0.00,WeatherDisplay:10.37,2013-02-13 19:34:00,
2013-02-13 11:39:00,59.0,19.1,30.27,North,360,5.8,5.8,21,0.00,OVC,,0.00,WeatherDisplay:10.37,2013-02-13 19:39:00,
2013-02-13 11:44:00,59.6,19.6,30.27,North,5,3.5,3.5,21,0.00,OVC,,0.00,WeatherDisplay:10.37,2013-02-13 19:44:00,
2013-02-13 11:49:00,60.1,18.8,30.27,NNE,13,6.9,6.9,20,0.00,OVC,,0.00,WeatherDisplay:10.37,2013-02-13 19:49:00,
2013-02-13 11:54:00,60.2,18.9,30.26,NE,55,6.9,6.9,20,0.00,OVC,,0.00,WeatherDisplay:10.37,2013-02-13 19:54:00,
2013-02-13 12:00:00,60.3,17.8,30.26,NE,48,2.3,2.3,19,0.00,OVC,,0.00,WeatherDisplay:10.37,2013-02-13 20:00:00,
2013-02-13 12:05:00,60.2,17.7,30.26,ESE,111,2.3,2.3,19,0.00,OVC,,0.00,WeatherDisplay:10.37,2013-02-13 20:05:00,
2013-02-13 12:10:00,60.6,18.1,30.25,ENE,64,8.1,8.1,19,0.00,OVC,,0.00,WeatherDisplay:10.37,2013-02-13 20:10:00,
2013-02-13 12:15:00,60.5,15.4,30.25,NE,44,5.0,5.0,17,0.00,OVC,,0.00,WeatherDisplay:10.37,2013-02-13 20:15:00,
2013-02-13 12:20:00,60.8,17.0,30.25,North,11,3.5,3.5,18,0.00,OVC,,0.00,WeatherDisplay:10.37,2013-02-13 20:20:00,
2013-02-13 12:26:00,61.2,17.3,30.24,ENE,57,7.0,7.0,18,0.00,OVC,,0.00,WeatherDisplay:10.37,2013-02-13 20:26:00,
2013-02-13 12:31:00,60.2,16.5,30.24,ENE,57,6.9,6.9,18,0.00,OVC,,0.00,WeatherDisplay:10.37,2013-02-13 20:31:00,
2013-02-13 12:36:00,60.4,16.6,30.24,North,11,5.8,5.8,18,0.00,OVC,,0.00,WeatherDisplay:10.37,2013-02-13 20:36:00,
2013-02-13 12:41:00,60.9,17.0,30.24,East,95,3.5,3.5,18,0.00,OVC,,0.00,WeatherDisplay:10.37,2013-02-13 20:41:00,
2013-02-13 12:46:00,61.1,17.2,30.23,NE,48,9.2,9.2,18,0.00,OVC,,0.00,WeatherDisplay:10.37,2013-02-13 20:46:00,
2013-02-13 12:51:00,60.7,16.9,30.23,NE,49,11.5,11.5,18,0.00,OVC,,0.00,WeatherDisplay:10.37,2013-02-13 20:51:00,
2013-02-13 12:56:00,60.8,17.0,30.23,NNE,32,5.0,5.0,18,0.00,OVC,,0.00,WeatherDisplay:10.37,2013-02-13 20:56:00,
2013-02-13 13:02:00,61.4,17.5,30.23,NNE,32,4.6,4.6,18,0.00,OVC,,0.00,WeatherDisplay:10.37,2013-02-13 21:02:00,
2013-02-13 13:07:00,61.1,17.2,30.22,East,80,11.5,11.5,18,0.00,OVC,,0.00,WeatherDisplay:10.37,2013-02-13 21:07:00,
2013-02-13 13:12:00,60.5,16.7,30.22,ENE,71,6.0,10.0,18,0.00,CLR,,0.00,WeatherDisplay:10.37,2013-02-13 21:12:00,
2013-02-13 13:17:00,60.7,16.9,30.22,ENE,67,6.9,6.9,18,0.00,OVC,,0.00,WeatherDisplay:10.37,2013-02-13 21:17:00,
2013-02-13 13:22:00,61.8,17.8,30.22,ENE,67,6.9,6.9,18,0.00,OVC,,0.00,WeatherDisplay:10.37,2013-02-13 21:22:00,
2013-02-13 13:28:00,61.4,17.5,30.21,SE,132,6.9,6.9,18,0.00,OVC,,0.00,WeatherDisplay:10.37,2013-02-13 21:28:00,
2013-02-13 13:33:00,61.7,17.7,30.21,NNE,32,6.9,6.9,18,0.00,OVC,,0.00,WeatherDisplay:10.37,2013-02-13 21:33:00,
2013-02-13 13:38:00,62.0,16.6,30.20,NE,42,8.1,8.1,17,0.00,OVC,,0.00,WeatherDisplay:10.37,2013-02-13 21:38:00,
2013-02-13 13:43:00,62.0,16.6,30.20,ESE,118,3.5,3.5,17,0.00,OVC,,0.00,WeatherDisplay:10.37,2013-02-13 21:43:00,
2013-02-13 13:48:00,62.1,18.0,30.20,NNE,12,9.0,9.0,18,0.00,OVC,,0.00,WeatherDisplay:10.37,2013-02-13 21:48:00,
2013-02-13 13:53:00,62.7,17.2,30.19,ENE,59,9.0,9.0,17,0.00,CLR,,0.00,WeatherDisplay:10.37,2013-02-13 21:53:00,
2013-02-13 13:58:00,61.3,17.4,30.19,South,184,4.6,4.6,18,0.00,OVC,,0.00,WeatherDisplay:10.37,2013-02-13 21:58:00,
2013-02-13 14:04:00,61.6,16.3,30.19,SE,136,7.0,7.0,17,0.00,OVC,,0.00,WeatherDisplay:10.37,2013-02-13 22:04:00,
2013-02-13 14:09:00,61.4,17.5,30.18,ENE,65,5.8,5.8,18,0.00,CLR,,0.00,WeatherDisplay:10.37,2013-02-13 22:09:00,
2013-02-13 14:14:00,62.1,16.7,30.18,North,355,4.0,4.0,17,0.00,OVC,,0.00,WeatherDisplay:10.37,2013-02-13 22:14:00,
2013-02-13 14:19:00,63.2,16.2,30.18,NNW,344,5.8,5.8,16,0.00,OVC,,0.00,WeatherDisplay:10.37,2013-02-13 22:19:00,
2013-02-13 14:24:00,63.7,16.6,30.18,WNW,288,3.5,3.5,16,0.00,OVC,,0.00,WeatherDisplay:10.37,2013-02-13 22:24:00,
2013-02-13 14:30:00,64.3,17.1,30.18,NW,325,3.5,3.5,16,0.00,OVC,,0.00,WeatherDisplay:10.37,2013-02-13 22:30:00,
2013-02-13 14:35:00,64.2,17.0,30.18,NE,56,3.5,0.0,16,0.00,OVC,,0.00,WeatherDisplay:10.37,2013-02-13 22:35:00,
2013-02-13 14:40:00,65.0,16.2,30.17,NNE,24,4.6,4.6,15,0.00,OVC,,0.00,WeatherDisplay:10.37,2013-02-13 22:40:00,
2013-02-13 14:45:00,64.5,17.3,30.17,East,80,9.2,9.2,16,0.00,OVC,,0.00,WeatherDisplay:10.37,2013-02-13 22:45:00,
2013-02-13 14:50:00,63.1,16.1,30.17,East,96,8.1,8.1,16,0.00,OVC,,0.00,WeatherDisplay:10.37,2013-02-13 22:50:00,
2013-02-13 14:55:00,62.3,16.9,30.17,ENE,76,9.2,9.2,17,0.00,OVC,,0.00,WeatherDisplay:10.37,2013-02-13 22:55:00,
2013-02-13 15:01:00,62.2,16.8,30.17,SE,125,3.5,3.5,17,0.00,OVC,,0.00,WeatherDisplay:10.37,2013-02-13 23:01:00,
2013-02-13 15:06:00,62.8,17.3,30.17,NE,49,5.8,5.8,17,0.00,OVC,,0.00,WeatherDisplay:10.37,2013-02-13 23:06:00,
2013-02-13 15:11:00,63.4,17.8,30.17,North,9,4.6,4.6,17,0.00,OVC,,0.00,WeatherDisplay:10.37,2013-02-13 23:11:00,
2013-02-13 15:16:00,64.2,17.0,30.16,NE,55,3.5,3.5,16,0.00,OVC,,0.00,WeatherDisplay:10.37,2013-02-13 23:16:00,
2013-02-13 15:21:00,64.5,17.3,30.16,NNE,30,2.3,2.3,16,0.00,OVC,,0.00,WeatherDisplay:10.37,2013-02-13 23:21:00,
2013-02-13 15:26:00,65.0,17.7,30.16,NNE,31,8.0,8.0,16,0.00,OVC,,0.00,WeatherDisplay:10.37,2013-02-13 23:26:00,
2013-02-13 15:32:00,64.8,16.0,30.16,NE,41,6.9,6.9,15,0.00,OVC,,0.00,WeatherDisplay:10.37,2013-02-13 23:32:00,
2013-02-13 15:37:00,64.0,16.8,30.16,NE,35,10.4,10.4,16,0.00,OVC,,0.00,WeatherDisplay:10.37,2013-02-13 23:37:00,
2013-02-13 15:42:00,63.7,16.6,30.16,NE,43,8.1,8.1,16,0.00,OVC,,0.00,WeatherDisplay:10.37,2013-02-13 23:42:00,
2013-02-13 15:47:00,63.4,16.4,30.16,NE,52,6.0,8.0,16,0.00,CLR,,0.00,WeatherDisplay:10.37,2013-02-13 23:47:00,
2013-02-13 15:52:00,63.0,16.0,30.16,ENE,69,3.0,9.0,16,0.00,CLR,,0.00,WeatherDisplay:10.37,2013-02-13 23:52:00,
2013-02-13 15:57:00,62.8,15.9,30.15,ESE,104,6.9,6.9,16,0.00,OVC,,0.00,WeatherDisplay:10.37,2013-02-13 23:57:00,
2013-02-13 16:02:00,62.5,17.0,30.15,East,81,7.0,7.0,17,0.00,OVC,,0.00,WeatherDisplay:10.37,2013-02-14 00:02:00,
2013-02-13 16:07:00,62.6,17.1,30.15,NE,53,4.0,4.0,17,0.00,OVC,,0.00,WeatherDisplay:10.37,2013-02-14 00:07:00,
2013-02-13 16:13:00,62.7,15.8,30.15,ENE,75,6.9,6.9,16,0.00,OVC,,0.00,WeatherDisplay:10.37,2013-02-14 00:13:00,
2013-02-13 16:18:00,62.6,17.1,30.15,ESE,103,6.0,6.0,17,0.00,OVC,,0.00,WeatherDisplay:10.37,2013-02-14 00:18:00,
2013-02-13 16:23:00,62.5,17.0,30.15,ENE,71,8.1,8.1,17,0.00,OVC,,0.00,WeatherDisplay:10.37,2013-02-14 00:23:00,
2013-02-13 16:28:00,62.4,17.0,30.15,NE,47,4.6,4.6,17,0.00,OVC,,0.00,WeatherDisplay:10.37,2013-02-14 00:28:00,
2013-02-13 16:33:00,62.5,17.0,30.15,NE,54,4.0,4.0,17,0.00,OVC,,0.00,WeatherDisplay:10.37,2013-02-14 00:33:00,
2013-02-13 16:39:00,62.6,17.1,30.15,NE,53,5.0,5.0,17,0.00,OVC,,0.00,WeatherDisplay:10.37,2013-02-14 00:39:00,
2013-02-13 16:44:00,62.5,17.0,30.15,ENE,71,3.5,3.5,17,0.00,OVC,,0.00,WeatherDisplay:10.37,2013-02-14 00:44:00,
2013-02-13 16:49:00,62.3,16.9,30.15,East,86,5.0,5.0,17,0.00,OVC,,0.00,WeatherDisplay:10.37,2013-02-14 00:49:00,
2013-02-13 16:54:00,62.0,16.6,30.15,ENE,75,4.6,4.8,17,0.00,OVC,,0.00,WeatherDisplay:10.37,2013-02-14 00:54:00,
2013-02-13 16:59:00,61.7,16.4,30.15,East,80,6.0,6.0,17,0.00,OVC,,0.00,WeatherDisplay:10.37,2013-02-14 00:59:00,
2013-02-13 17:04:00,61.5,16.2,30.15,East,80,4.6,4.6,17,0.00,OVC,,0.00,WeatherDisplay:10.37,2013-02-14 01:04:00,
2013-02-13 17:10:00,61.4,16.1,30.15,East,80,4.6,4.6,17,0.00,OVC,,0.00,WeatherDisplay:10.37,2013-02-14 01:10:00,
2013-02-13 17:15:00,61.2,16.0,30.15,East,80,3.5,3.5,17,0.00,OVC,,0.00,WeatherDisplay:10.37,2013-02-14 01:15:00,
2013-02-13 17:20:00,60.9,15.7,30.15,East,80,3.5,3.5,17,0.00,OVC,,0.00,WeatherDisplay:10.37,2013-02-14 01:20:00,
2013-02-13 17:25:00,60.6,16.8,30.15,East,80,2.3,2.3,18,0.00,OVC,,0.00,WeatherDisplay:10.37,2013-02-14 01:25:00,
2013-02-13 17:30:00,60.3,16.6,30.15,East,80,2.3,2.3,18,0.00,OVC,,0.00,WeatherDisplay:10.37,2013-02-14 01:30:00,
2013-02-13 17:35:00,59.9,16.2,30.15,East,80,3.5,3.5,18,0.00,OVC,,0.00,WeatherDisplay:10.37,2013-02-14 01:35:00,
2013-02-13 17:40:00,59.6,16.0,30.15,East,80,3.5,3.5,18,0.00,OVC,,0.00,WeatherDisplay:10.37,2013-02-14 01:40:00,
2013-02-13 17:45:00,59.5,15.9,30.15,East,80,4.6,4.6,18,0.00,OVC,,0.00,WeatherDisplay:10.37,2013-02-14 01:45:00,
2013-02-13 17:50:00,59.3,15.7,30.15,East,80,3.5,3.5,18,0.00,OVC,,0.00,WeatherDisplay:10.37,2013-02-14 01:50:00,
2013-02-13 17:56:00,57.9,15.8,30.15,East,80,2.0,2.0,19,0.00,OVC,,0.00,WeatherDisplay:10.37,2013-02-14 01:56:00,
2013-02-13 18:01:00,56.3,15.7,30.16,East,80,2.3,2.3,20,0.00,OVC,,0.00,WeatherDisplay:10.37,2013-02-14 02:01:00,
2013-02-13 18:06:00,54.8,22.3,30.15,East,80,3.5,3.5,28,0.00,OVC,,0.00,WeatherDisplay:10.37,2013-02-14 02:06:00,
2013-02-13 18:11:00,53.9,20.6,30.15,East,80,0.0,0.0,27,0.00,OVC,,0.00,WeatherDisplay:10.37,2013-02-14 02:11:00,
2013-02-13 18:16:00,53.5,19.4,30.16,East,80,0.0,0.0,26,0.00,OVC,,0.00,WeatherDisplay:10.37,2013-02-14 02:16:00,
2013-02-13 18:21:00,53.5,19.4,30.15,East,80,0.0,0.0,26,0.00,OVC,,0.00,WeatherDisplay:10.37,2013-02-14 02:21:00,
2013-02-13 18:26:00,52.8,17.9,30.16,SW,229,4.6,4.6,25,0.00,OVC,,0.00,WeatherDisplay:10.37,2013-02-14 02:26:00,
2013-02-13 18:32:00,54.5,17.4,30.16,WSW,238,4.0,4.0,23,0.00,OVC,,0.00,WeatherDisplay:10.37,2013-02-14 02:32:00,
2013-02-13 18:37:00,55.5,17.2,30.16,WSW,242,3.5,3.5,22,0.00,OVC,,0.00,WeatherDisplay:10.37,2013-02-14 02:37:00,
2013-02-13 18:42:00,55.8,16.4,30.16,WSW,241,2.0,3.0,21,0.00,CLR,,0.00,WeatherDisplay:10.37,2013-02-14 02:42:00,
2013-02-13 18:47:00,54.8,15.6,30.16,WSW,242,3.5,3.5,21,0.00,OVC,,0.00,WeatherDisplay:10.37,2013-02-14 02:47:00,
2013-02-13 18:52:00,52.6,14.8,30.16,WSW,242,3.0,3.0,22,0.00,OVC,,0.00,WeatherDisplay:10.37,2013-02-14 02:52:00,
2013-02-13 18:58:00,50.8,13.3,30.16,WSW,242,4.0,4.0,22,0.00,OVC,,0.00,WeatherDisplay:10.37,2013-02-14 02:58:00,
2013-02-13 19:03:00,48.6,14.3,30.16,SW,221,11.0,11.0,25,0.00,OVC,,0.00,WeatherDisplay:10.37,2013-02-14 03:03:00,
2013-02-13 19:08:00,47.2,14.9,30.16,WSW,244,11.5,11.5,27,0.00,CLR,,0.00,WeatherDisplay:10.37,2013-02-14 03:08:00,
2013-02-13 19:13:00,48.5,16.0,30.16,WSW,244,9.2,9.2,27,0.00,CLR,,0.00,WeatherDisplay:10.37,2013-02-14 03:13:00,
2013-02-13 19:18:00,47.4,15.9,30.16,SW,224,3.5,3.5,28,0.00,CLR,,0.00,WeatherDisplay:10.37,2013-02-14 03:18:00,
2013-02-13 19:23:00,46.8,17.0,30.16,SW,220,4.0,4.0,30,0.00,CLR,,0.00,WeatherDisplay:10.37,2013-02-14 03:23:00,
2013-02-13 19:29:00,45.5,15.0,30.16,South,172,4.6,4.6,29,0.00,CLR,,0.00,WeatherDisplay:10.37,2013-02-14 03:29:00,
2013-02-13 19:34:00,44.1,15.3,30.17,South,172,4.6,4.6,31,0.00,CLR,,0.00,WeatherDisplay:10.37,2013-02-14 03:34:00,
2013-02-13 19:39:00,43.5,17.6,30.16,South,172,3.5,3.5,35,0.00,CLR,,0.00,WeatherDisplay:10.37,2013-02-14 03:39:00,
2013-02-13 19:44:00,44.1,19.5,30.16,South,172,1.0,1.0,37,0.00,CLR,,0.00,WeatherDisplay:10.37,2013-02-14 03:44:00,
2013-02-13 19:49:00,44.5,19.2,30.16,South,173,2.3,2.3,36,0.00,CLR,,0.00,WeatherDisplay:10.37,2013-02-14 03:49:00,
2013-02-13 19:54:00,45.9,21.7,30.17,WNW,287,6.0,6.0,38,0.00,CLR,,0.00,WeatherDisplay:10.37,2013-02-14 03:54:00,
2013-02-13 19:59:00,48.8,25.5,30.17,WNW,299,5.8,5.8,40,0.00,CLR,,0.00,WeatherDisplay:10.37,2013-02-14 03:59:00,
2013-02-13 20:04:00,49.4,24.2,30.17,SSW,206,5.8,5.8,37,0.00,CLR,,0.00,WeatherDisplay:10.37,2013-02-14 04:04:00,
2013-02-13 20:09:00,47.0,25.6,30.17,SW,233,9.2,9.2,43,0.00,CLR,,0.00,WeatherDisplay:10.37,2013-02-14 04:09:00,
2013-02-13 20:15:00,47.6,27.8,30.16,WSW,245,9.2,9.2,46,0.00,CLR,,0.00,WeatherDisplay:10.37,2013-02-14 04:15:00,
2013-02-13 20:20:00,46.9,27.7,30.17,SW,224,8.1,8.1,47,0.00,CLR,,0.00,WeatherDisplay:10.37,2013-02-14 04:20:00,
2013-02-13 20:25:00,45.2,24.6,30.17,SW,217,9.2,9.2,44,0.00,CLR,,0.00,WeatherDisplay:10.37,2013-02-14 04:25:00,
2013-02-13 20:30:00,45.4,24.2,30.17,SW,225,12.7,12.7,43,0.00,CLR,,0.00,WeatherDisplay:10.37,2013-02-14 04:30:00,
2013-02-13 20:35:00,45.4,24.7,30.17,SSW,199,9.2,9.2,44,0.00,CLR,,0.00,WeatherDisplay:10.37,2013-02-14 04:35:00,
2013-02-13 20:40:00,44.8,23.1,30.17,South,186,9.0,9.0,42,0.00,CLR,,0.00,WeatherDisplay:10.37,2013-02-14 04:40:00,
2013-02-13 20:46:00,44.0,24.0,30.17,SSW,204,8.0,8.0,45,0.00,CLR,,0.00,WeatherDisplay:10.37,2013-02-14 04:46:00,
2013-02-13 20:51:00,43.9,22.8,30.17,SW,216,10.4,10.4,43,0.00,CLR,,0.00,WeatherDisplay:10.37,2013-02-14 04:51:00,
2013-02-13 20:56:00,43.8,23.3,30.18,SW,222,10.4,10.4,44,0.00,CLR,,0.00,WeatherDisplay:10.37,2013-02-14 04:56:00,
2013-02-13 21:00:00,43.7,23.7,30.17,SW,223,10.4,10.4,45,0.00,CLR,,0.00,WeatherDisplay:10.37,2013-02-14 05:00:00,
2013-02-13 21:01:00,43.8,23.8,30.18,SW,232,10.4,10.4,45,0.00,CLR,,0.00,WeatherDisplay:10.37,2013-02-14 05:01:00,
2013-02-13 21:06:00,43.9,23.9,30.18,SW,215,7.0,7.0,45,0.00,OVC,,0.00,WeatherDisplay:10.37,2013-02-14 05:06:00,
2013-02-13 21:11:00,43.6,24.2,30.17,SW,214,7.0,7.0,46,0.00,OVC,,0.00,WeatherDisplay:10.37,2013-02-14 05:11:00,
2013-02-13 21:16:00,43.5,24.1,30.18,SW,218,7.0,7.0,46,0.00,OVC,,0.00,WeatherDisplay:10.37,2013-02-14 05:16:00,
2013-02-13 21:22:00,44.0,24.5,30.18,SSW,202,6.9,6.9,46,0.00,OVC,,0.00,WeatherDisplay:10.37,2013-02-14 05:22:00,
2013-02-13 21:27:00,44.1,25.1,30.18,SSW,194,7.0,7.0,47,0.00,OVC,,0.00,WeatherDisplay:10.37,2013-02-14 05:27:00,
2013-02-13 21:32:00,43.0,22.0,30.18,SSW,207,8.1,8.1,43,0.00,OVC,,0.00,WeatherDisplay:10.37,2013-02-14 05:32:00,
2013-02-13 21:37:00,42.4,23.1,30.18,SSW,212,8.0,10.0,46,0.00,CLR,,0.00,WeatherDisplay:10.37,2013-02-14 05:37:00,
2013-02-13 21:42:00,43.2,24.8,30.18,SW,216,8.0,9.0,48,0.00,CLR,,0.00,WeatherDisplay:10.37,2013-02-14 05:42:00,
2013-02-13 21:47:00,42.9,20.8,30.18,SSW,207,9.0,9.0,41,0.00,OVC,,0.00,WeatherDisplay:10.37,2013-02-14 05:47:00,
2013-02-13 21:52:00,42.2,20.2,30.18,SSW,211,8.1,8.1,41,0.00,OVC,,0.00,WeatherDisplay:10.37,2013-02-14 05:52:00,
2013-02-13 21:57:00,42.6,21.1,30.18,SW,216,8.0,8.0,42,0.00,OVC,,0.00,WeatherDisplay:10.37,2013-02-14 05:57:00,
2013-02-13 22:02:00,42.2,19.6,30.18,SSW,209,7.0,7.0,40,0.00,OVC,,0.00,WeatherDisplay:10.37,2013-02-14 06:02:00,
2013-02-13 22:08:00,41.8,19.2,30.18,SW,224,6.0,6.0,40,0.00,OVC,,0.00,WeatherDisplay:10.37,2013-02-14 06:08:00,
2013-02-13 22:13:00,42.4,18.6,30.18,SW,215,6.9,6.9,38,0.00,OVC,,0.00,WeatherDisplay:10.37,2013-02-14 06:13:00,
2013-02-13 22:18:00,41.9,17.5,30.18,SSW,208,5.8,5.8,37,0.00,OVC,,0.00,WeatherDisplay:10.37,2013-02-14 06:18:00,
2013-02-13 22:23:00,41.3,18.2,30.18,SSW,204,6.0,6.0,39,0.00,OVC,,0.00,WeatherDisplay:10.37,2013-02-14 06:23:00,
2013-02-13 22:28:00,42.5,19.8,30.18,SSW,204,6.9,6.9,40,0.00,OVC,,0.00,WeatherDisplay:10.37,2013-02-14 06:28:00,
2013-02-13 22:33:00,42.7,18.2,30.18,SSW,212,5.0,5.0,37,0.00,OVC,,0.00,WeatherDisplay:10.37,2013-02-14 06:33:00,
2013-02-13 22:38:00,41.2,17.5,30.19,SW,216,2.3,2.3,38,0.00,OVC,,0.00,WeatherDisplay:10.37,2013-02-14 06:38:00,
2013-02-13 22:44:00,39.3,18.6,30.19,SW,216,0.0,0.0,43,0.00,OVC,,0.00,WeatherDisplay:10.37,2013-02-14 06:44:00,
2013-02-13 22:49:00,38.1,19.1,30.19,SW,217,0.0,0.0,46,0.00,OVC,,0.00,WeatherDisplay:10.37,2013-02-14 06:49:00,
2013-02-13 22:54:00,36.6,19.2,30.19,SW,217,0.0,0.0,49,0.00,OVC,,0.00,WeatherDisplay:10.37,2013-02-14 06:54:00,
2013-02-13 22:59:00,36.8,19.9,30.19,SW,216,3.5,3.5,50,0.00,OVC,,0.00,WeatherDisplay:10.37,2013-02-14 06:59:00,
2013-02-13 23:04:00,37.3,20.3,30.19,SW,217,3.0,3.0,50,0.00,OVC,,0.00,WeatherDisplay:10.37,2013-02-14 07:04:00,
2013-02-13 23:09:00,36.7,17.3,30.20,SW,223,3.5,3.5,45,0.00,OVC,,0.00,WeatherDisplay:10.37,2013-02-14 07:09:00,
2013-02-13 23:14:00,37.9,21.8,30.19,SW,223,3.5,3.5,52,0.00,OVC,,0.00,WeatherDisplay:10.37,2013-02-14 07:14:00,
2013-02-13 23:19:00,38.3,22.2,30.19,SW,223,3.5,3.5,52,0.00,OVC,,0.00,WeatherDisplay:10.37,2013-02-14 07:19:00,
2013-02-13 23:25:00,38.0,20.0,30.19,SW,226,4.0,4.0,48,0.00,OVC,,0.00,WeatherDisplay:10.37,2013-02-14 07:25:00,
2013-02-13 23:30:00,36.7,16.3,30.19,West,263,4.0,4.0,43,0.00,OVC,,0.00,WeatherDisplay:10.37,2013-02-14 07:30:00,
2013-02-13 23:35:00,36.1,18.8,30.19,WSW,249,5.0,5.0,49,0.00,OVC,,0.00,WeatherDisplay:10.37,2013-02-14 07:35:00,
2013-02-13 23:40:00,35.5,15.7,30.20,WSW,246,4.0,4.0,44,0.00,OVC,,0.00,WeatherDisplay:10.37,2013-02-14 07:40:00,
2013-02-13 23:46:00,35.7,15.9,30.20,WSW,246,5.0,5.0,44,0.00,OVC,,0.00,WeatherDisplay:10.37,2013-02-14 07:46:00,
2013-02-13 23:51:00,35.1,15.3,30.20,WSW,246,5.8,5.8,44,0.00,OVC,,0.00,WeatherDisplay:10.37,2013-02-14 07:51:00,
2013-02-13 23:56:00,34.9,16.2,30.19,West,260,5.0,5.0,46,0.00,OVC,,0.00,WeatherDisplay:10.37,2013-02-14 07:56:00,